This is the latest recevied weather packets stored in our database for station/object HS5HBQ-1. If no packets are shown the sender has not sent any weather packets the latest 10 day(s).
| Time | Temp. | Humidity | Pressure | Rain* | Wind** | Luminosity | Snow |
|---|---|---|---|---|---|---|---|
| 1778150160 | 34.44° C | 39% | 968 hPa | - | - | 0 W/m² | - |
| 1778149536 | 35° C | 36% | 968 hPa | - | - | 0 W/m² | - |
| 1778148912 | 35.56° C | 36% | 968 hPa | - | - | 0 W/m² | - |
| 1778148287 | 35.56° C | 37% | 968 hPa | - | - | 0 W/m² | - |
| 1778147663 | 35.56° C | 38% | 968 hPa | - | - | 0 W/m² | - |
| 1778147038 | 35.56° C | 38% | 968 hPa | - | - | 0 W/m² | - |
| 1778146414 | 35.56° C | 38% | 968 hPa | - | - | 0 W/m² | - |
| 1778145790 | 35.56° C | 39% | 969 hPa | - | - | 0 W/m² | - |
| 1778145165 | 35° C | 41% | 969 hPa | - | - | 0 W/m² | - |
| 1778144541 | 36.11° C | 39% | 969 hPa | - | - | 0 W/m² | - |
| 1778143917 | 36.11° C | 38% | 969 hPa | - | - | 0 W/m² | - |
| 1778143293 | 35.56° C | 37% | 969 hPa | - | - | 0 W/m² | - |
| 1778142669 | 35.56° C | 36% | 969 hPa | - | - | 0 W/m² | - |
| 1778142044 | 35.56° C | 36% | 969 hPa | - | - | 0 W/m² | - |
| 1778141419 | 35.56° C | 37% | 969 hPa | - | - | 0 W/m² | - |
| 1778140793 | 34.44° C | 41% | 969 hPa | - | - | 0 W/m² | - |
| 1778140166 | 35° C | 40% | 969 hPa | - | - | 0 W/m² | - |
| 1778139542 | 35° C | 40% | 969 hPa | - | - | 0 W/m² | - |
| 1778138918 | 35.56° C | 38% | 970 hPa | - | - | 0 W/m² | - |
| 1778138293 | 35.56° C | 37% | 970 hPa | - | - | 0 W/m² | - |
| 1778137669 | 35.56° C | 38% | 970 hPa | - | - | 0 W/m² | - |
| 1778137044 | 36.11° C | 38% | 970 hPa | - | - | 0 W/m² | - |
| 1778136420 | 36.11° C | 38% | 970 hPa | - | - | 0 W/m² | - |
| 1778135796 | 35.56° C | 40% | 971 hPa | - | - | 0 W/m² | - |
| 1778135171 | 35.56° C | 41% | 971 hPa | - | - | 0 W/m² | - |
* Rain since midnight (hover to see other rain measurements)
** Current wind speed in m/s (hover to see current wind gust speed)